Time;durP1;ratioP1;P1;durP2;ratioP2;P2;SDS_P1;SDS_P2;PMS_P1;PMS_P2;Temp;Humidity;BMP_temperature;BMP_pressure;BME280_temperature;BME280_humidity;BME280_pressure;Samples;Min_cycle;Max_cycle;Signal;HPM_P1;HPM_P2
2024/01/24 00:00:05;;;;;;;15.87;3.97;;;7.80;99.90;;;;;;502971;236;27719;-67
2024/01/24 00:02:05;;;;;;;17.50;3.93;;;7.80;99.90;;;;;;502951;236;27960;-67
2024/01/24 00:04:06;;;;;;;20.97;4.93;;;7.90;99.90;;;;;;502974;236;28460;-66
2024/01/24 00:06:08;;;;;;;17.23;4.00;;;7.90;99.90;;;;;;502928;236;28314;-67
2024/01/24 00:08:09;;;;;;;10.13;3.30;;;7.90;99.90;;;;;;503015;236;28886;-67
2024/01/24 00:10:10;;;;;;;17.83;3.77;;;7.90;99.90;;;;;;503032;236;28415;-66
2024/01/24 00:12:12;;;;;;;14.13;3.80;;;7.90;99.90;;;;;;502988;236;28067;-68
2024/01/24 00:14:13;;;;;;;17.03;3.60;;;8.00;99.90;;;;;;502984;236;27914;-67
2024/01/24 00:16:14;;;;;;;8.70;3.40;;;8.00;99.90;;;;;;502911;236;27856;-67
2024/01/24 00:18:15;;;;;;;17.67;3.87;;;8.00;99.90;;;;;;502985;236;28114;-67
2024/01/24 00:20:16;;;;;;;21.07;3.50;;;8.10;99.90;;;;;;503001;236;27836;-67
2024/01/24 00:22:18;;;;;;;16.17;4.30;;;8.00;99.90;;;;;;502983;236;28042;-66
2024/01/24 00:24:19;;;;;;;13.07;3.77;;;8.00;99.90;;;;;;502958;236;27973;-66
2024/01/24 00:26:20;;;;;;;10.83;3.17;;;8.00;99.90;;;;;;502918;236;27967;-66
2024/01/24 00:28:21;;;;;;;13.97;3.70;;;8.00;99.90;;;;;;503003;236;28025;-68
2024/01/24 00:30:23;;;;;;;19.07;5.33;;;8.10;99.90;;;;;;502923;236;28275;-66
2024/01/24 00:32:24;;;;;;;16.07;3.40;;;8.00;99.90;;;;;;502950;236;28150;-67
2024/01/24 00:34:28;;;;;;;16.93;3.57;;;8.00;99.90;;;;;;502948;236;28000;-66
2024/01/24 00:36:26;;;;;;;15.83;3.67;;;8.00;99.90;;;;;;502888;236;27609;-67
2024/01/24 00:38:28;;;;;;;22.40;3.90;;;8.00;99.90;;;;;;503006;236;28046;-67
2024/01/24 00:40:29;;;;;;;23.10;3.80;;;8.00;99.90;;;;;;502978;236;27818;-66
2024/01/24 00:42:31;;;;;;;18.23;3.50;;;8.10;99.90;;;;;;502954;236;28017;-66
2024/01/24 00:44:32;;;;;;;15.70;3.60;;;8.00;99.90;;;;;;502907;236;28034;-67
2024/01/24 00:46:33;;;;;;;9.07;2.93;;;8.10;99.90;;;;;;502894;236;28581;-66
2024/01/24 00:48:34;;;;;;;10.80;3.40;;;8.10;99.90;;;;;;502966;236;28717;-67
2024/01/24 00:50:35;;;;;;;12.50;3.13;;;8.10;99.90;;;;;;502953;236;28487;-67
2024/01/24 00:52:37;;;;;;;16.50;3.60;;;8.10;99.90;;;;;;502976;236;27907;-66
2024/01/24 00:54:38;;;;;;;15.10;4.63;;;8.20;99.90;;;;;;502994;236;27583;-67
2024/01/24 00:56:40;;;;;;;14.83;3.83;;;8.10;99.90;;;;;;502955;236;27703;-66
2024/01/24 00:58:40;;;;;;;24.40;3.97;;;8.20;99.90;;;;;;502938;236;27926;-66
2024/01/24 01:00:42;;;;;;;13.47;3.50;;;8.20;99.90;;;;;;502942;236;27868;-66
2024/01/24 01:02:43;;;;;;;23.97;4.23;;;8.20;99.90;;;;;;503010;236;27832;-66
2024/01/24 01:04:44;;;;;;;19.33;3.80;;;8.20;99.90;;;;;;502977;236;27827;-68
2024/01/24 01:06:45;;;;;;;17.43;4.07;;;8.10;99.90;;;;;;502960;236;27921;-67
2024/01/24 01:08:47;;;;;;;19.30;4.10;;;8.20;99.90;;;;;;502974;236;27545;-67
2024/01/24 01:10:48;;;;;;;14.73;3.20;;;8.30;99.90;;;;;;503015;236;28662;-68
2024/01/24 01:12:49;;;;;;;15.37;3.50;;;8.30;99.90;;;;;;502987;236;28540;-67
2024/01/24 01:14:50;;;;;;;13.97;4.57;;;8.30;99.90;;;;;;502910;236;28416;-66
2024/01/24 01:16:52;;;;;;;16.93;3.30;;;8.40;99.90;;;;;;502977;236;27823;-66
2024/01/24 01:18:53;;;;;;;15.90;3.40;;;8.30;99.90;;;;;;502947;236;27821;-67
2024/01/24 01:20:56;;;;;;;13.20;3.90;;;8.30;99.90;;;;;;503015;233;27722;-68
2024/01/24 01:22:56;;;;;;;11.53;3.63;;;8.30;99.90;;;;;;502940;236;28082;-67
2024/01/24 01:24:58;;;;;;;12.70;3.17;;;8.30;99.90;;;;;;502928;236;27923;-66
2024/01/24 01:26:59;;;;;;;11.27;3.60;;;8.30;99.90;;;;;;502946;236;28460;-66
2024/01/24 01:29:00;;;;;;;22.93;4.10;;;8.40;99.90;;;;;;503028;236;28509;-68
2024/01/24 01:31:02;;;;;;;13.80;3.83;;;8.40;99.90;;;;;;503013;236;28454;-66
2024/01/24 01:33:03;;;;;;;13.13;3.60;;;8.40;99.90;;;;;;503006;236;28426;-66
2024/01/24 01:35:04;;;;;;;13.67;4.30;;;8.30;99.90;;;;;;502950;236;28815;-67
2024/01/24 01:37:05;;;;;;;12.00;3.43;;;8.30;99.90;;;;;;503009;236;27889;-67
2024/01/24 01:39:07;;;;;;;14.80;3.87;;;8.40;99.90;;;;;;502999;236;28013;-68
2024/01/24 01:41:08;;;;;;;11.00;3.60;;;8.40;99.90;;;;;;502968;236;28015;-66
2024/01/24 01:43:10;;;;;;;15.50;3.27;;;8.40;99.90;;;;;;502992;236;27875;-66
2024/01/24 01:45:10;;;;;;;12.63;3.47;;;8.40;99.90;;;;;;502889;236;28065;-67
2024/01/24 01:47:11;;;;;;;11.53;3.30;;;8.40;99.90;;;;;;503006;236;27678;-66
2024/01/24 01:49:13;;;;;;;17.97;3.90;;;8.40;99.90;;;;;;502992;236;27622;-67
2024/01/24 01:51:14;;;;;;;12.40;2.87;;;8.40;99.90;;;;;;502945;236;27944;-67
2024/01/24 01:53:15;;;;;;;12.93;3.40;;;8.50;99.90;;;;;;502943;236;28044;-67
2024/01/24 01:55:17;;;;;;;7.83;3.43;;;8.40;99.90;;;;;;502980;236;28151;-67
2024/01/24 01:57:18;;;;;;;12.77;3.53;;;8.50;99.90;;;;;;502990;236;28407;-67
2024/01/24 01:59:19;;;;;;;20.47;3.50;;;8.50;99.90;;;;;;502989;236;28557;-67
2024/01/24 02:01:20;;;;;;;14.57;3.87;;;8.50;99.90;;;;;;502966;236;28288;-67
2024/01/24 02:03:22;;;;;;;13.10;3.40;;;8.50;99.90;;;;;;502978;236;27688;-67
2024/01/24 02:05:23;;;;;;;14.07;3.17;;;8.50;99.90;;;;;;502908;236;27748;-67
2024/01/24 02:07:24;;;;;;;14.40;3.67;;;8.50;99.90;;;;;;502805;236;27924;-67
2024/01/24 02:09:25;;;;;;;14.60;3.27;;;8.50;99.90;;;;;;502958;236;28124;-66
2024/01/24 02:11:27;;;;;;;14.53;4.13;;;8.50;99.90;;;;;;502966;236;27870;-67
2024/01/24 02:13:30;;;;;;;14.27;3.80;;;8.50;99.90;;;;;;502986;236;27892;-66
2024/01/24 02:15:31;;;;;;;8.73;3.43;;;8.50;99.90;;;;;;502870;236;27645;-68
2024/01/24 02:17:30;;;;;;;9.57;3.70;;;8.50;99.90;;;;;;502896;236;27793;-67
2024/01/24 02:19:32;;;;;;;12.60;3.97;;;8.50;99.90;;;;;;502954;236;28115;-67
2024/01/24 02:21:33;;;;;;;7.37;3.27;;;8.60;99.90;;;;;;503004;236;28511;-68
2024/01/24 02:23:34;;;;;;;10.83;3.40;;;8.60;99.90;;;;;;502926;236;28312;-67
2024/01/24 02:25:36;;;;;;;12.40;3.73;;;8.60;99.90;;;;;;502898;236;28601;-67
2024/01/24 02:27:37;;;;;;;11.20;3.27;;;8.50;99.90;;;;;;502945;236;28347;-67
2024/01/24 02:29:38;;;;;;;14.50;3.60;;;8.50;99.90;;;;;;503009;236;27830;-67
2024/01/24 02:31:39;;;;;;;10.87;3.57;;;8.60;99.90;;;;;;503009;236;27418;-67
2024/01/24 02:33:40;;;;;;;11.10;3.53;;;8.60;99.90;;;;;;502973;236;27921;-67
2024/01/24 02:35:42;;;;;;;11.70;3.97;;;8.60;99.90;;;;;;502847;236;27947;-67
2024/01/24 02:37:43;;;;;;;13.20;4.20;;;8.60;99.90;;;;;;502975;234;28047;-67
2024/01/24 02:39:44;;;;;;;9.30;2.93;;;8.60;99.90;;;;;;502975;236;27699;-66
2024/01/24 02:41:45;;;;;;;9.70;3.47;;;8.60;99.90;;;;;;502988;236;27729;-67
2024/01/24 02:43:47;;;;;;;12.77;2.97;;;8.60;99.90;;;;;;502960;236;28411;-66
2024/01/24 02:45:48;;;;;;;12.47;3.27;;;8.60;99.90;;;;;;502911;236;28390;-67
2024/01/24 02:47:49;;;;;;;6.07;2.80;;;8.60;99.90;;;;;;503023;236;28560;-68
2024/01/24 02:49:50;;;;;;;11.10;3.23;;;8.60;99.90;;;;;;503023;236;28106;-67
2024/01/24 02:51:52;;;;;;;11.50;3.10;;;8.60;99.90;;;;;;502982;236;27969;-67
2024/01/24 02:53:53;;;;;;;10.40;3.20;;;8.60;99.90;;;;;;502965;236;27748;-67
2024/01/24 02:55:54;;;;;;;8.57;3.30;;;8.60;99.90;;;;;;502921;236;27915;-67
2024/01/24 02:57:55;;;;;;;9.40;2.93;;;8.60;99.90;;;;;;502975;236;27606;-68
2024/01/24 02:59:57;;;;;;;8.10;2.70;;;8.60;99.90;;;;;;502969;236;27712;-66
2024/01/24 03:01:58;;;;;;;5.53;3.20;;;8.70;99.90;;;;;;502961;236;27966;-67
2024/01/24 03:03:59;;;;;;;11.07;3.27;;;8.60;99.90;;;;;;502960;236;27990;-67
2024/01/24 03:06:00;;;;;;;10.13;3.33;;;8.60;99.90;;;;;;502904;236;27916;-66
2024/01/24 03:08:02;;;;;;;5.23;3.00;;;8.60;99.90;;;;;;502980;236;28109;-68
2024/01/24 03:10:03;;;;;;;9.90;3.23;;;8.60;99.90;;;;;;502899;236;27798;-67
2024/01/24 03:12:04;;;;;;;12.53;3.20;;;8.70;99.90;;;;;;502950;236;28093;-67
2024/01/24 03:14:06;;;;;;;7.70;2.60;;;8.70;99.90;;;;;;502942;236;28756;-67
2024/01/24 03:16:07;;;;;;;14.33;3.63;;;8.70;99.90;;;;;;502895;236;28460;-67
2024/01/24 03:18:08;;;;;;;5.80;3.40;;;8.70;99.90;;;;;;502964;234;27962;-67
2024/01/24 03:20:11;;;;;;;6.90;2.73;;;8.70;99.90;;;;;;502954;236;28525;-66
2024/01/24 03:22:10;;;;;;;12.60;3.00;;;8.70;99.90;;;;;;502933;236;28498;-66
2024/01/24 03:24:12;;;;;;;10.27;3.10;;;8.70;99.90;;;;;;503033;236;27800;-68
2024/01/24 03:26:15;;;;;;;7.90;3.20;;;8.80;99.90;;;;;;502919;236;28011;-67
2024/01/24 03:28:14;;;;;;;6.63;3.00;;;8.80;99.90;;;;;;502891;236;27887;-67
2024/01/24 03:30:16;;;;;;;8.40;3.00;;;8.80;99.90;;;;;;502955;236;27888;-67
2024/01/24 03:32:18;;;;;;;6.97;3.30;;;8.80;99.90;;;;;;502978;236;27890;-66
2024/01/24 03:34:18;;;;;;;8.20;3.67;;;8.70;99.90;;;;;;502953;236;27975;-68
2024/01/24 03:36:19;;;;;;;10.23;3.57;;;8.80;99.90;;;;;;502880;236;27989;-67
2024/01/24 03:38:21;;;;;;;5.10;2.87;;;8.80;99.90;;;;;;502958;236;27811;-67
2024/01/24 03:40:22;;;;;;;7.70;3.00;;;8.80;99.90;;;;;;502947;236;27777;-66
2024/01/24 03:42:23;;;;;;;11.80;3.23;;;8.80;99.90;;;;;;502988;236;27950;-66
2024/01/24 03:44:24;;;;;;;12.43;3.63;;;8.80;99.90;;;;;;502906;236;28512;-68
2024/01/24 03:46:26;;;;;;;12.73;2.90;;;8.80;99.90;;;;;;502883;236;28167;-67
2024/01/24 03:48:27;;;;;;;6.60;3.63;;;8.80;99.90;;;;;;502947;236;28441;-67
2024/01/24 03:50:28;;;;;;;10.47;3.33;;;8.80;99.90;;;;;;502921;236;28367;-67
2024/01/24 03:52:29;;;;;;;8.17;3.30;;;8.80;99.90;;;;;;502989;236;27838;-67
2024/01/24 03:54:31;;;;;;;5.83;3.40;;;8.90;99.90;;;;;;502929;236;27859;-67
2024/01/24 03:56:32;;;;;;;8.17;3.67;;;8.90;99.90;;;;;;502725;236;27577;-67
2024/01/24 03:58:33;;;;;;;11.40;3.80;;;8.90;99.90;;;;;;502925;234;27812;-67
2024/01/24 04:00:34;;;;;;;5.60;3.13;;;8.90;99.90;;;;;;503003;236;27961;-68
2024/01/24 04:02:36;;;;;;;13.43;3.30;;;8.90;99.90;;;;;;502970;236;27902;-68
2024/01/24 04:04:37;;;;;;;8.10;2.80;;;8.90;99.90;;;;;;502973;236;27614;-68
2024/01/24 04:06:38;;;;;;;8.33;3.10;;;9.00;99.90;;;;;;502900;236;27936;-67
2024/01/24 04:08:39;;;;;;;8.40;3.00;;;9.00;99.90;;;;;;502943;236;28368;-67
2024/01/24 04:10:41;;;;;;;7.00;3.00;;;9.00;99.90;;;;;;502992;236;27581;-67
2024/01/24 04:12:42;;;;;;;12.50;2.93;;;9.00;99.90;;;;;;502962;236;27570;-66
2024/01/24 04:14:43;;;;;;;3.37;2.63;;;9.00;99.90;;;;;;502925;236;28068;-67
2024/01/24 04:16:44;;;;;;;6.03;2.60;;;9.10;99.90;;;;;;502861;236;29359;-67
2024/01/24 04:18:45;;;;;;;6.90;2.70;;;9.10;99.90;;;;;;502980;236;28341;-68
2024/01/24 04:20:47;;;;;;;5.20;2.70;;;9.10;99.90;;;;;;502989;236;28278;-67
2024/01/24 04:22:48;;;;;;;6.17;2.70;;;9.10;99.90;;;;;;502943;236;28037;-67
2024/01/24 04:24:49;;;;;;;4.67;2.57;;;9.10;99.90;;;;;;502874;236;28450;-67
2024/01/24 04:26:50;;;;;;;4.73;2.27;;;9.10;99.90;;;;;;502921;236;28548;-67
2024/01/24 04:28:52;;;;;;;7.53;3.20;;;9.10;99.90;;;;;;502980;236;27915;-67
2024/01/24 04:30:53;;;;;;;4.90;2.17;;;9.20;99.90;;;;;;502965;236;27852;-67
2024/01/24 04:32:54;;;;;;;6.40;2.70;;;9.20;99.90;;;;;;502883;236;27954;-67
2024/01/24 04:34:55;;;;;;;7.83;3.23;;;9.20;99.90;;;;;;502906;236;27974;-68
2024/01/24 04:36:57;;;;;;;7.20;2.70;;;9.20;99.90;;;;;;502988;236;27928;-67
2024/01/24 04:38:59;;;;;;;5.00;3.10;;;9.20;99.90;;;;;;502972;236;27817;-67
2024/01/24 04:40:59;;;;;;;2.87;2.57;;;9.30;99.90;;;;;;502930;236;27533;-68
2024/01/24 04:43:00;;;;;;;7.93;2.83;;;9.30;99.90;;;;;;502947;236;27988;-67
2024/01/24 04:45:02;;;;;;;6.27;2.67;;;9.20;99.90;;;;;;502862;236;27938;-67
2024/01/24 04:47:03;;;;;;;4.23;2.53;;;9.30;99.90;;;;;;502990;236;28097;-68
2024/01/24 04:49:04;;;;;;;5.30;2.67;;;9.40;99.90;;;;;;502997;236;27570;-67
2024/01/24 04:51:05;;;;;;;3.73;2.27;;;9.30;99.90;;;;;;502963;236;27971;-67
2024/01/24 04:53:07;;;;;;;5.13;2.87;;;9.40;99.90;;;;;;502944;236;28002;-67
2024/01/24 04:55:08;;;;;;;4.80;2.63;;;9.40;99.90;;;;;;502929;236;28363;-67
2024/01/24 04:57:09;;;;;;;6.37;2.33;;;9.40;99.90;;;;;;502977;236;28454;-68
2024/01/24 04:59:10;;;;;;;4.23;2.77;;;9.40;99.90;;;;;;502963;236;28464;-67
2024/01/24 05:01:12;;;;;;;4.90;2.33;;;9.40;99.90;;;;;;502958;236;28412;-68
2024/01/24 05:03:14;;;;;;;2.90;1.97;;;9.40;99.90;;;;;;502992;236;28313;-67
2024/01/24 05:05:14;;;;;;;2.10;1.90;;;9.40;99.90;;;;;;502984;234;27539;-68
2024/01/24 05:07:15;;;;;;;3.80;1.93;;;9.50;99.90;;;;;;503006;236;27968;-68
2024/01/24 05:09:17;;;;;;;3.53;1.90;;;9.50;99.90;;;;;;503025;236;27977;-67
2024/01/24 05:11:18;;;;;;;2.50;1.77;;;9.50;99.90;;;;;;502981;236;28015;-67
2024/01/24 05:13:19;;;;;;;1.87;1.70;;;9.50;99.90;;;;;;502990;236;27949;-67
2024/01/24 05:15:20;;;;;;;5.57;2.33;;;9.50;99.90;;;;;;502937;236;27949;-67
2024/01/24 05:17:22;;;;;;;2.90;1.50;;;9.50;99.90;;;;;;502909;236;27489;-68
2024/01/24 05:19:23;;;;;;;3.27;1.57;;;9.50;99.90;;;;;;502951;236;27922;-67
2024/01/24 05:21:24;;;;;;;1.57;1.43;;;9.50;99.90;;;;;;503007;236;27993;-68
2024/01/24 05:23:25;;;;;;;2.83;1.57;;;9.50;99.90;;;;;;503011;236;27877;-68
2024/01/24 05:25:27;;;;;;;3.30;1.80;;;9.50;99.90;;;;;;502895;236;28129;-67
2024/01/24 05:27:28;;;;;;;1.40;1.30;;;9.50;99.90;;;;;;502978;236;28026;-68
2024/01/24 05:29:29;;;;;;;2.30;1.53;;;9.60;99.90;;;;;;502964;236;27547;-67
2024/01/24 05:31:30;;;;;;;1.77;1.40;;;9.50;99.90;;;;;;502974;236;27514;-67
2024/01/24 05:33:32;;;;;;;3.13;1.33;;;9.50;99.90;;;;;;503014;236;28411;-67
2024/01/24 05:35:33;;;;;;;2.30;1.20;;;9.60;99.90;;;;;;502942;236;28246;-67
2024/01/24 05:37:34;;;;;;;1.20;1.20;;;9.60;99.90;;;;;;502981;236;28370;-67
2024/01/24 05:39:35;;;;;;;1.93;1.37;;;9.60;99.90;;;;;;502937;236;29011;-67
2024/01/24 05:41:37;;;;;;;1.80;1.53;;;9.60;99.90;;;;;;502986;236;28282;-67
2024/01/24 05:43:38;;;;;;;1.70;1.60;;;9.60;99.90;;;;;;503004;236;28468;-68
2024/01/24 05:45:39;;;;;;;1.93;1.70;;;9.70;99.90;;;;;;502934;236;27957;-67
2024/01/24 05:47:42;;;;;;;2.03;1.43;;;9.60;99.90;;;;;;502938;236;27839;-67
2024/01/24 05:49:42;;;;;;;1.40;1.30;;;9.70;99.90;;;;;;502918;236;27968;-67
2024/01/24 05:51:43;;;;;;;1.73;1.33;;;9.70;99.90;;;;;;502977;236;27923;-67
2024/01/24 05:53:44;;;;;;;1.20;1.20;;;9.70;99.90;;;;;;502977;236;27920;-67
2024/01/24 05:55:46;;;;;;;2.03;1.43;;;9.70;99.90;;;;;;502914;236;28009;-67
2024/01/24 05:57:47;;;;;;;3.00;1.77;;;9.70;99.90;;;;;;502961;236;28094;-67
2024/01/24 05:59:48;;;;;;;3.03;1.50;;;9.70;99.90;;;;;;503002;236;27755;-68
2024/01/24 06:01:49;;;;;;;1.53;1.20;;;9.70;99.90;;;;;;503007;236;27797;-67
2024/01/24 06:03:51;;;;;;;1.83;1.30;;;9.70;99.90;;;;;;502981;236;27933;-68
2024/01/24 06:05:52;;;;;;;1.50;1.40;;;9.70;99.90;;;;;;502911;236;28099;-67
2024/01/24 06:07:53;;;;;;;4.23;1.13;;;9.70;99.90;;;;;;502973;236;27734;-67
2024/01/24 06:09:54;;;;;;;1.40;1.30;;;9.80;99.90;;;;;;502995;236;27476;-68
2024/01/24 06:11:55;;;;;;;1.83;1.40;;;9.80;99.90;;;;;;502976;236;27960;-67
2024/01/24 06:13:57;;;;;;;1.57;1.40;;;9.70;99.90;;;;;;502974;236;28486;-67
2024/01/24 06:15:58;;;;;;;1.20;1.20;;;9.80;99.90;;;;;;502934;236;29126;-67
2024/01/24 06:17:59;;;;;;;2.53;1.40;;;9.80;99.90;;;;;;503004;236;27928;-68
2024/01/24 06:20:00;;;;;;;1.30;1.20;;;9.80;99.90;;;;;;502983;236;28811;-68
2024/01/24 06:22:02;;;;;;;8.43;2.67;;;9.80;99.90;;;;;;502956;236;27557;-67
2024/01/24 06:24:03;;;;;;;2.90;1.83;;;9.80;99.90;;;;;;502937;236;27923;-67
2024/01/24 06:26:04;;;;;;;2.90;1.70;;;9.80;99.90;;;;;;502890;234;27848;-67
2024/01/24 06:28:05;;;;;;;1.80;1.70;;;9.90;99.90;;;;;;502967;236;27467;-67
2024/01/24 06:30:07;;;;;;;3.03;1.80;;;9.90;99.90;;;;;;502936;236;27946;-68
2024/01/24 06:32:08;;;;;;;3.07;1.97;;;9.90;99.90;;;;;;502925;236;27926;-67
2024/01/24 06:34:10;;;;;;;1.97;1.70;;;9.90;99.90;;;;;;502910;236;27715;-67
2024/01/24 06:36:10;;;;;;;2.90;1.60;;;9.90;99.90;;;;;;502956;236;27922;-68
2024/01/24 06:38:12;;;;;;;2.00;1.70;;;9.90;99.90;;;;;;502942;236;27746;-67
2024/01/24 06:40:14;;;;;;;1.47;1.37;;;9.90;99.90;;;;;;502913;236;27952;-68
2024/01/24 06:42:14;;;;;;;2.90;1.73;;;10.00;99.90;;;;;;502882;236;27854;-67
2024/01/24 06:44:15;;;;;;;1.70;1.60;;;10.00;99.90;;;;;;502918;236;27703;-67
2024/01/24 06:46:17;;;;;;;2.00;1.77;;;9.90;99.90;;;;;;502931;236;27608;-67
2024/01/24 06:48:18;;;;;;;2.00;1.70;;;9.90;99.90;;;;;;503000;236;28344;-67
2024/01/24 06:50:19;;;;;;;1.70;1.60;;;10.00;99.90;;;;;;502955;236;28509;-68
2024/01/24 06:52:20;;;;;;;1.83;1.73;;;9.90;99.90;;;;;;502926;236;28945;-67
2024/01/24 06:54:22;;;;;;;1.80;1.70;;;10.00;99.90;;;;;;502999;236;28650;-67
2024/01/24 06:56:23;;;;;;;1.70;1.60;;;10.00;99.90;;;;;;502994;236;27723;-68
2024/01/24 06:58:24;;;;;;;1.97;1.87;;;10.00;99.90;;;;;;502995;236;27970;-67
2024/01/24 07:00:26;;;;;;;3.33;1.67;;;10.00;99.90;;;;;;502967;236;27917;-67
2024/01/24 07:02:27;;;;;;;1.60;1.50;;;10.00;99.90;;;;;;502944;236;27932;-67
2024/01/24 07:04:29;;;;;;;1.70;1.60;;;10.10;99.90;;;;;;502985;236;27784;-67
2024/01/24 07:06:29;;;;;;;1.50;1.40;;;10.10;99.90;;;;;;502897;236;27619;-68
2024/01/24 07:08:30;;;;;;;1.43;1.33;;;10.20;99.90;;;;;;502942;236;28133;-67
2024/01/24 07:10:32;;;;;;;1.60;1.50;;;10.10;99.90;;;;;;502937;236;27945;-67
2024/01/24 07:12:34;;;;;;;1.50;1.50;;;10.10;99.90;;;;;;502981;236;27853;-68
2024/01/24 07:14:36;;;;;;;1.83;1.60;;;10.20;99.90;;;;;;502951;236;27962;-68
2024/01/24 07:16:37;;;;;;;1.70;1.60;;;10.20;99.90;;;;;;502961;236;28314;-69
2024/01/24 07:18:38;;;;;;;1.63;1.53;;;10.20;99.90;;;;;;502996;236;28504;-67
2024/01/24 07:20:39;;;;;;;1.60;1.50;;;10.20;99.90;;;;;;502921;236;28293;-67
2024/01/24 07:22:41;;;;;;;1.67;1.57;;;10.20;99.90;;;;;;502939;236;28192;-67
2024/01/24 07:24:42;;;;;;;2.70;1.57;;;10.20;99.90;;;;;;502952;236;27913;-67
2024/01/24 07:26:43;;;;;;;3.07;1.40;;;10.20;99.90;;;;;;502989;236;27938;-68
2024/01/24 07:28:44;;;;;;;1.70;1.60;;;10.30;99.90;;;;;;502996;236;27583;-67
2024/01/24 07:30:46;;;;;;;1.93;1.60;;;10.30;99.90;;;;;;503003;236;27929;-68
2024/01/24 07:32:47;;;;;;;1.70;1.60;;;10.30;99.90;;;;;;502971;236;27695;-67
2024/01/24 07:34:48;;;;;;;1.53;1.30;;;10.30;99.90;;;;;;502956;236;28251;-68
2024/01/24 07:36:49;;;;;;;1.53;1.43;;;10.30;99.90;;;;;;502996;236;28549;-67
2024/01/24 07:38:51;;;;;;;1.20;1.10;;;10.30;99.90;;;;;;502995;236;28276;-67
2024/01/24 07:40:52;;;;;;;3.57;1.30;;;10.30;99.90;;;;;;502999;236;27917;-68
2024/01/24 07:42:53;;;;;;;1.70;1.60;;;10.30;99.90;;;;;;502952;236;27647;-68
2024/01/24 07:44:54;;;;;;;3.67;1.20;;;10.30;99.90;;;;;;502981;236;27571;-67
2024/01/24 07:46:56;;;;;;;1.10;1.10;;;10.30;99.90;;;;;;502966;236;28060;-69
2024/01/24 07:48:57;;;;;;;1.00;1.00;;;10.40;99.90;;;;;;502975;236;27909;-67
2024/01/24 07:50:58;;;;;;;1.40;1.30;;;10.40;99.90;;;;;;502824;236;28036;-67
2024/01/24 07:52:59;;;;;;;1.53;1.43;;;10.40;99.90;;;;;;502964;236;27892;-68
2024/01/24 07:55:01;;;;;;;1.10;1.10;;;10.40;99.90;;;;;;502946;236;27884;-68
2024/01/24 07:57:03;;;;;;;1.10;1.10;;;10.40;99.90;;;;;;502911;236;27938;-67
2024/01/24 07:59:04;;;;;;;1.03;1.03;;;10.40;99.90;;;;;;502845;236;28211;-67
2024/01/24 08:01:05;;;;;;;1.10;1.10;;;10.50;99.90;;;;;;502943;236;28545;-68
2024/01/24 08:03:07;;;;;;;1.00;1.00;;;10.50;99.90;;;;;;502988;236;28418;-69
2024/01/24 08:05:07;;;;;;;2.20;1.20;;;10.50;99.90;;;;;;502874;236;28254;-67
2024/01/24 08:07:08;;;;;;;0.90;0.90;;;10.50;99.90;;;;;;502906;236;27929;-67
2024/01/24 08:09:09;;;;;;;1.13;1.07;;;10.60;99.90;;;;;;502902;236;27881;-67
2024/01/24 08:11:11;;;;;;;1.47;1.10;;;10.60;99.90;;;;;;502911;236;27824;-67
2024/01/24 08:13:12;;;;;;;0.90;0.90;;;10.60;99.90;;;;;;502808;236;27957;-68
2024/01/24 08:15:14;;;;;;;1.00;1.00;;;10.60;99.90;;;;;;502661;236;27927;-67
2024/01/24 08:17:15;;;;;;;1.20;1.10;;;10.60;99.90;;;;;;502549;236;27933;-67
2024/01/24 08:19:16;;;;;;;1.00;0.97;;;10.60;99.90;;;;;;502753;236;28203;-68
2024/01/24 08:21:17;;;;;;;1.00;1.00;;;10.60;99.90;;;;;;502943;236;28133;-68
2024/01/24 08:23:18;;;;;;;1.10;1.00;;;10.60;99.90;;;;;;503027;236;27858;-67
2024/01/24 08:25:19;;;;;;;1.13;1.00;;;10.70;99.90;;;;;;502935;236;28166;-67
2024/01/24 08:27:21;;;;;;;0.87;0.87;;;10.70;99.90;;;;;;502970;236;28263;-68
2024/01/24 08:29:25;;;;;;;3.40;1.00;;;10.70;99.90;;;;;;503019;236;28431;-69
2024/01/24 08:31:23;;;;;;;1.00;1.00;;;10.80;99.90;;;;;;502889;236;27977;-67
2024/01/24 08:33:24;;;;;;;0.87;0.87;;;10.80;99.90;;;;;;502977;236;27965;-67
2024/01/24 08:35:26;;;;;;;1.03;0.93;;;10.80;99.90;;;;;;502909;236;27915;-69
2024/01/24 08:37:27;;;;;;;2.97;0.90;;;10.90;99.90;;;;;;502991;236;27897;-67
2024/01/24 08:39:28;;;;;;;1.00;0.90;;;10.90;99.90;;;;;;502996;236;27962;-68
2024/01/24 08:41:29;;;;;;;1.07;0.80;;;10.90;99.90;;;;;;502986;236;27929;-68
2024/01/24 08:43:31;;;;;;;1.13;1.03;;;11.00;99.90;;;;;;502994;236;28198;-68
2024/01/24 08:45:32;;;;;;;0.70;0.70;;;11.00;99.90;;;;;;502913;236;28432;-68
2024/01/24 08:47:33;;;;;;;1.03;0.87;;;11.00;99.90;;;;;;502994;236;27935;-67
2024/01/24 08:49:34;;;;;;;1.07;1.00;;;11.10;99.90;;;;;;503002;236;28639;-67
2024/01/24 08:51:36;;;;;;;0.80;0.80;;;11.10;99.90;;;;;;502956;236;28666;-67
2024/01/24 08:53:37;;;;;;;1.00;0.90;;;11.20;99.90;;;;;;502968;236;28625;-67
2024/01/24 08:55:38;;;;;;;1.10;1.00;;;11.10;99.90;;;;;;502999;236;28156;-68
2024/01/24 08:57:41;;;;;;;1.63;1.10;;;11.10;99.90;;;;;;503004;236;28177;-67
2024/01/24 08:59:41;;;;;;;1.47;0.90;;;11.10;99.90;;;;;;502927;236;27993;-68
2024/01/24 09:01:42;;;;;;;3.80;0.90;;;11.10;99.90;;;;;;502940;236;28082;-67
2024/01/24 09:03:44;;;;;;;1.30;0.93;;;11.10;99.90;;;;;;502992;236;28071;-67
2024/01/24 09:05:45;;;;;;;2.00;1.00;;;11.10;99.90;;;;;;502934;236;28061;-68
2024/01/24 09:07:46;;;;;;;8.17;1.10;;;11.00;99.90;;;;;;502957;236;28050;-67
2024/01/24 09:09:51;;;;;;;2.00;1.13;;;11.00;99.90;;;;;;502955;236;28494;-67
2024/01/24 09:11:48;;;;;;;3.67;1.00;;;11.00;99.90;;;;;;502806;236;29401;-67
2024/01/24 09:13:50;;;;;;;2.03;1.20;;;11.00;99.90;;;;;;503038;236;28495;-67
2024/01/24 09:15:51;;;;;;;1.33;1.23;;;11.00;99.90;;;;;;502927;236;28196;-67
2024/01/24 09:17:52;;;;;;;2.87;1.30;;;11.00;99.90;;;;;;502968;236;28287;-67
2024/01/24 09:19:53;;;;;;;7.07;1.70;;;11.00;99.90;;;;;;502873;236;28304;-67
2024/01/24 09:21:55;;;;;;;2.50;1.10;;;11.10;99.90;;;;;;502988;234;27964;-69
2024/01/24 09:23:56;;;;;;;1.10;1.00;;;11.10;99.90;;;;;;502772;236;28052;-67
2024/01/24 09:25:57;;;;;;;3.70;1.30;;;11.00;99.90;;;;;;502962;236;28153;-67
2024/01/24 09:27:58;;;;;;;1.50;1.10;;;11.00;99.90;;;;;;502946;236;27938;-67
2024/01/24 09:30:00;;;;;;;3.20;1.30;;;11.00;99.90;;;;;;502952;236;28173;-68
2024/01/24 09:32:01;;;;;;;2.47;1.53;;;10.90;99.90;;;;;;503000;236;28315;-68
2024/01/24 09:34:02;;;;;;;3.43;1.30;;;10.90;99.90;;;;;;502990;236;28536;-67
2024/01/24 09:36:03;;;;;;;2.80;1.50;;;10.90;99.90;;;;;;502922;236;28768;-68
2024/01/24 09:38:05;;;;;;;3.43;1.20;;;10.80;99.90;;;;;;502955;236;28502;-67
2024/01/24 09:40:06;;;;;;;5.00;1.47;;;10.90;99.90;;;;;;503008;236;28061;-67
2024/01/24 09:42:07;;;;;;;3.93;1.30;;;10.90;99.90;;;;;;502982;236;28037;-67
2024/01/24 09:44:08;;;;;;;5.83;1.90;;;10.80;99.90;;;;;;502981;236;28008;-67
2024/01/24 09:46:10;;;;;;;3.27;1.53;;;10.80;99.90;;;;;;502922;236;28161;-67
2024/01/24 09:48:11;;;;;;;5.33;1.47;;;10.80;99.90;;;;;;502977;236;28180;-67
2024/01/24 09:50:12;;;;;;;2.47;1.43;;;10.80;99.90;;;;;;502968;236;28084;-67
2024/01/24 09:52:13;;;;;;;4.13;1.40;;;10.80;99.90;;;;;;502975;236;28168;-67
2024/01/24 09:54:15;;;;;;;7.03;1.60;;;10.90;99.90;;;;;;502970;236;28033;-67
2024/01/24 09:56:16;;;;;;;5.27;1.60;;;10.90;99.90;;;;;;502903;236;28177;-67
2024/01/24 09:58:17;;;;;;;5.70;1.73;;;10.80;99.90;;;;;;502999;236;28514;-68
2024/01/24 10:00:18;;;;;;;6.00;1.93;;;10.80;99.90;;;;;;503007;236;28585;-67
2024/01/24 10:02:20;;;;;;;3.13;1.60;;;10.80;99.90;;;;;;502969;236;28542;-67
2024/01/24 10:04:21;;;;;;;6.40;1.43;;;10.90;99.90;;;;;;502960;236;28369;-67
2024/01/24 10:06:22;;;;;;;4.40;1.70;;;10.90;99.90;;;;;;502945;236;28039;-67
2024/01/24 10:08:23;;;;;;;8.60;1.70;;;10.90;99.90;;;;;;502972;236;28143;-68
2024/01/24 10:10:26;;;;;;;6.43;1.80;;;10.90;99.90;;;;;;502967;236;28077;-67
2024/01/24 10:12:26;;;;;;;8.20;1.97;;;11.00;99.90;;;;;;502919;236;28164;-67
2024/01/24 10:14:28;;;;;;;5.13;1.70;;;11.00;99.90;;;;;;502939;236;27960;-67
2024/01/24 10:16:28;;;;;;;3.10;1.60;;;11.00;99.90;;;;;;502946;236;27951;-67
2024/01/24 10:18:30;;;;;;;6.33;1.70;;;11.20;99.90;;;;;;502960;236;28175;-68
2024/01/24 10:20:31;;;;;;;3.57;1.50;;;11.20;99.90;;;;;;502960;236;28066;-67
2024/01/24 10:22:33;;;;;;;3.70;1.40;;;11.20;99.90;;;;;;502928;236;28589;-67
2024/01/24 10:24:33;;;;;;;4.07;1.40;;;11.20;99.90;;;;;;503011;236;28812;-69
2024/01/24 10:26:35;;;;;;;5.00;1.40;;;11.30;99.90;;;;;;502960;236;28709;-67
2024/01/24 10:28:36;;;;;;;3.77;1.47;;;11.30;99.90;;;;;;502999;236;28946;-68
2024/01/24 10:30:37;;;;;;;4.03;1.40;;;11.40;99.90;;;;;;502999;236;28014;-67
2024/01/24 10:32:38;;;;;;;6.50;1.83;;;11.50;99.90;;;;;;502961;236;28167;-67